Time;durP1;ratioP1;P1;durP2;ratioP2;P2;SDS_P1;SDS_P2;PMS_P1;PMS_P2;Temp;Humidity;BMP_temperature;BMP_pressure;BME280_temperature;BME280_humidity;BME280_pressure;Samples;Min_cycle;Max_cycle;Signal;HPM_P1;HPM_P2
2022/06/16 00:01:10;;;;;;;3.77;1.50;;;;;;;;;;5087650;28;20479;-70
2022/06/16 00:03:36;;;;;;;4.23;1.43;;;;;;;;;;5087419;28;20069;-69
2022/06/16 00:06:03;;;;;;;10.37;1.60;;;;;;;;;;5089534;28;20124;-70
2022/06/16 00:08:30;;;;;;;6.73;1.60;;;;;;;;;;5093111;28;20095;-70
2022/06/16 00:13:41;;;;;;;7.55;1.60;;;;;;;;;;5092997;28;20108;-70
2022/06/16 00:16:08;;;;;;;7.50;1.40;;;;;;;;;;5092507;28;20020;-70
2022/06/16 00:18:36;;;;;;;3.87;1.33;;;;;;;;;;5090075;28;20419;-70
2022/06/16 00:21:02;;;;;;;5.50;1.30;;;;;;;;;;5087030;28;20501;-70
2022/06/16 00:23:29;;;;;;;5.67;1.47;;;;;;;;;;5087268;28;20027;-70
2022/06/16 00:25:56;;;;;;;8.93;2.10;;;;;;;;;;5087481;28;20036;-69
2022/06/16 00:28:22;;;;;;;7.97;1.70;;;;;;;;;;5089392;28;20034;-70
2022/06/16 00:30:49;;;;;;;5.53;1.60;;;;;;;;;;5092693;28;20421;-69
2022/06/16 00:33:16;;;;;;;6.87;2.03;;;;;;;;;;5092536;28;20086;-70
2022/06/16 00:35:43;;;;;;;4.40;1.40;;;;;;;;;;5092580;28;20032;-70
2022/06/16 00:38:09;;;;;;;3.87;1.57;;;;;;;;;;5092693;28;20039;-70
2022/06/16 00:40:36;;;;;;;4.67;1.90;;;;;;;;;;5090592;28;20020;-69
2022/06/16 00:43:03;;;;;;;5.40;1.47;;;;;;;;;;5087092;28;20024;-69
2022/06/16 00:45:46;;;;;;;3.20;1.37;;;;;;;;;;5086319;28;20039;-70
2022/06/16 00:48:19;;;;;;;9.30;2.23;;;;;;;;;;5086785;28;20024;-69
2022/06/16 00:50:47;;;;;;;5.27;1.90;;;;;;;;;;5089142;28;20024;-69
2022/06/16 00:53:14;;;;;;;5.73;2.23;;;;;;;;;;5092135;28;20161;-70
2022/06/16 00:55:41;;;;;;;6.93;2.30;;;;;;;;;;5092478;28;20505;-69
2022/06/16 00:58:08;;;;;;;6.83;2.20;;;;;;;;;;5092470;28;20031;-69
2022/06/16 01:03:05;;;;;;;5.70;2.10;;;;;;;;;;5078764;28;20148;-69
2022/06/16 01:05:31;;;;;;;3.27;1.87;;;;;;;;;;5086845;28;20038;-70
2022/06/16 01:07:58;;;;;;;3.17;2.07;;;;;;;;;;5086827;28;20085;-69
2022/06/16 01:10:31;;;;;;;5.30;1.90;;;;;;;;;;5086815;28;20027;-69
2022/06/16 01:16:15;;;;;;;4.60;2.00;;;;;;;;;;5092181;28;20031;-69
2022/06/16 01:19:11;;;;;;;2.90;1.80;;;;;;;;;;5091809;28;20028;-69
2022/06/16 01:21:43;;;;;;;3.23;1.97;;;;;;;;;;5091981;28;20020;-69
2022/06/16 01:24:28;;;;;;;3.50;1.90;;;;;;;;;;5094159;28;20028;-70
2022/06/16 01:27:13;;;;;;;3.95;2.45;;;;;;;;;;5090270;28;20071;-69
2022/06/16 01:29:54;;;;;;;3.78;2.28;;;;;;;;;;5090769;28;20023;-69
2022/06/16 01:32:40;;;;;;;3.83;1.83;;;;;;;;;;5090197;28;20378;-70
2022/06/16 01:35:26;;;;;;;4.03;1.83;;;;;;;;;;5092099;28;20032;-70
2022/06/16 01:38:11;;;;;;;5.47;2.07;;;;;;;;;;5095929;28;20417;-69
2022/06/16 01:40:58;;;;;;;2.70;1.52;;;;;;;;;;5096278;28;20028;-70
2022/06/16 01:43:29;;;;;;;13.43;1.70;;;;;;;;;;5095843;28;20035;-69
2022/06/16 01:45:56;;;;;;;3.47;1.30;;;;;;;;;;5095790;28;20064;-69
2022/06/16 01:48:23;;;;;;;2.73;1.60;;;;;;;;;;5091350;28;20024;-70
2022/06/16 01:51:00;;;;;;;13.00;1.70;;;;;;;;;;5089964;28;20020;-69
2022/06/16 01:53:39;;;;;;;4.70;1.60;;;;;;;;;;5090023;28;20483;-70
2022/06/16 01:56:12;;;;;;;3.73;2.10;;;;;;;;;;5090074;28;20060;-70
2022/06/16 01:58:42;;;;;;;3.60;1.93;;;;;;;;;;5094660;28;20031;-69
2022/06/16 02:01:11;;;;;;;8.23;2.13;;;;;;;;;;5095650;28;20028;-69
2022/06/16 02:03:40;;;;;;;6.10;1.93;;;;;;;;;;5095528;28;20378;-69
2022/06/16 02:06:12;;;;;;;6.20;2.30;;;;;;;;;;5095410;28;20032;-69
2022/06/16 02:08:41;;;;;;;5.07;1.77;;;;;;;;;;5095521;28;20023;-69
2022/06/16 02:11:14;;;;;;;5.70;1.93;;;;;;;;;;5089475;28;20448;-70
2022/06/16 02:13:45;;;;;;;5.50;1.97;;;;;;;;;;5090063;28;20104;-70
2022/06/16 02:16:24;;;;;;;4.37;1.97;;;;;;;;;;5089676;28;20031;-70
2022/06/16 02:18:57;;;;;;;3.60;1.83;;;;;;;;;;5089744;28;20389;-70
2022/06/16 02:21:30;;;;;;;2.87;1.87;;;;;;;;;;5095125;28;20034;-70
2022/06/16 02:23:57;;;;;;;4.27;2.07;;;;;;;;;;5095091;28;20056;-70
2022/06/16 02:26:25;;;;;;;2.60;1.60;;;;;;;;;;5095035;28;20028;-70
2022/06/16 02:28:53;;;;;;;4.43;1.70;;;;;;;;;;5094889;28;20016;-70
2022/06/16 02:31:29;;;;;;;10.40;2.17;;;;;;;;;;5094331;28;20027;-70
2022/06/16 02:34:14;;;;;;;6.10;1.97;;;;;;;;;;5089378;28;20028;-70
2022/06/16 02:37:00;;;;;;;2.65;1.77;;;;;;;;;;5088578;28;20056;-70
2022/06/16 02:39:38;;;;;;;8.37;2.07;;;;;;;;;;5088875;28;20031;-70
2022/06/16 02:42:05;;;;;;;2.27;1.40;;;;;;;;;;5091255;28;20024;-70
2022/06/16 02:44:52;;;;;;;7.23;1.90;;;;;;;;;;5094445;28;20087;-70
2022/06/16 02:47:54;;;;;;;2.70;1.90;;;;;;;;;;5063424;28;20114;-69
2022/06/16 02:50:36;;;;;;;4.40;2.10;;;;;;;;;;5094643;28;20107;-70
2022/06/16 02:53:26;;;;;;;5.73;1.63;;;;;;;;;;5094692;28;20379;-69
2022/06/16 02:55:54;;;;;;;4.57;1.87;;;;;;;;;;5088929;28;20042;-70
2022/06/16 02:58:22;;;;;;;2.60;2.00;;;;;;;;;;5088959;28;20413;-70
2022/06/16 03:00:53;;;;;;;3.13;1.53;;;;;;;;;;5089003;28;20059;-69
2022/06/16 03:03:27;;;;;;;3.37;1.50;;;;;;;;;;5088706;28;20063;-70
2022/06/16 03:05:55;;;;;;;6.88;2.08;;;;;;;;;;5094388;28;20043;-70
2022/06/16 03:08:22;;;;;;;3.60;1.60;;;;;;;;;;5093926;28;20027;-69
2022/06/16 03:10:52;;;;;;;4.73;1.93;;;;;;;;;;5075458;28;20387;-69
2022/06/16 03:13:19;;;;;;;7.53;2.30;;;;;;;;;;5094247;28;20047;-69
2022/06/16 03:15:46;;;;;;;4.90;1.80;;;;;;;;;;5093848;28;20024;-69
2022/06/16 03:18:13;;;;;;;7.63;1.97;;;;;;;;;;5088267;28;20509;-69
2022/06/16 03:20:39;;;;;;;3.13;1.73;;;;;;;;;;5088506;28;20483;-69
2022/06/16 03:23:06;;;;;;;2.90;2.13;;;;;;;;;;5088674;28;20352;-69
2022/06/16 03:25:34;;;;;;;3.33;1.97;;;;;;;;;;5088554;28;20479;-69
2022/06/16 03:28:01;;;;;;;2.30;1.47;;;;;;;;;;5093511;28;20020;-69
2022/06/16 03:30:27;;;;;;;4.83;1.67;;;;;;;;;;5093855;28;20020;-70
2022/06/16 03:32:54;;;;;;;3.83;1.90;;;;;;;;;;5093751;28;20055;-69
2022/06/16 03:35:21;;;;;;;2.60;1.83;;;;;;;;;;5093259;28;20371;-69
2022/06/16 03:37:47;;;;;;;7.77;1.97;;;;;;;;;;5093587;28;20566;-69
2022/06/16 03:40:14;;;;;;;3.27;2.20;;;;;;;;;;5088427;28;20081;-69
2022/06/16 03:42:41;;;;;;;2.83;1.80;;;;;;;;;;5088197;28;20343;-69
2022/06/16 03:45:08;;;;;;;6.57;2.13;;;;;;;;;;5088137;28;20095;-69
2022/06/16 03:47:34;;;;;;;3.17;2.03;;;;;;;;;;5087540;28;20032;-69
2022/06/16 03:50:01;;;;;;;4.77;2.27;;;;;;;;;;5092111;28;20052;-69
2022/06/16 03:52:28;;;;;;;3.53;2.13;;;;;;;;;;5093455;28;20073;-69
2022/06/16 03:54:54;;;;;;;3.57;2.10;;;;;;;;;;5093315;28;20023;-69
2022/06/16 03:57:21;;;;;;;2.73;1.60;;;;;;;;;;5093311;28;20063;-69
2022/06/16 03:59:48;;;;;;;13.43;1.90;;;;;;;;;;5092953;28;20024;-69
2022/06/16 04:02:14;;;;;;;2.63;1.73;;;;;;;;;;5088431;28;20038;-69
2022/06/16 04:04:41;;;;;;;4.23;1.90;;;;;;;;;;5087681;28;20059;-69
2022/06/16 04:07:08;;;;;;;4.63;1.53;;;;;;;;;;5087585;28;20027;-69
2022/06/16 04:09:35;;;;;;;3.80;1.80;;;;;;;;;;5087697;28;20221;-69
2022/06/16 04:12:01;;;;;;;2.63;1.30;;;;;;;;;;5091361;28;20501;-69
2022/06/16 04:14:28;;;;;;;2.43;1.60;;;;;;;;;;5093151;28;20059;-69
2022/06/16 04:16:56;;;;;;;2.23;1.53;;;;;;;;;;5092839;28;20020;-69
2022/06/16 04:19:23;;;;;;;2.33;1.33;;;;;;;;;;5092960;28;20088;-69
2022/06/16 04:21:52;;;;;;;2.77;1.37;;;;;;;;;;5092384;28;20028;-69
2022/06/16 04:24:19;;;;;;;1.60;1.10;;;;;;;;;;5088372;28;20020;-69
2022/06/16 04:26:48;;;;;;;1.83;1.27;;;;;;;;;;5087510;28;20031;-69
2022/06/16 04:29:15;;;;;;;4.73;1.67;;;;;;;;;;5087328;28;20054;-69
2022/06/16 04:31:41;;;;;;;2.20;1.57;;;;;;;;;;5087307;28;20028;-69
2022/06/16 04:34:09;;;;;;;2.13;1.40;;;;;;;;;;5090612;28;20494;-69
2022/06/16 04:36:35;;;;;;;3.90;1.93;;;;;;;;;;5092328;28;20027;-69
2022/06/16 04:39:02;;;;;;;4.60;1.90;;;;;;;;;;5092556;28;20052;-69
2022/06/16 04:41:29;;;;;;;5.30;1.80;;;;;;;;;;5092608;28;20103;-69
2022/06/16 04:43:55;;;;;;;3.00;1.70;;;;;;;;;;5092683;28;20077;-69
2022/06/16 04:46:23;;;;;;;5.37;1.83;;;;;;;;;;5088609;28;20024;-69
2022/06/16 04:48:52;;;;;;;2.97;2.00;;;;;;;;;;5086555;28;20020;-70
2022/06/16 04:51:18;;;;;;;6.17;1.90;;;;;;;;;;5086972;28;20535;-69
2022/06/16 04:53:45;;;;;;;3.37;1.93;;;;;;;;;;5086839;28;20026;-70
2022/06/16 04:56:12;;;;;;;4.53;1.90;;;;;;;;;;5089938;28;20036;-69
2022/06/16 04:58:39;;;;;;;3.50;1.80;;;;;;;;;;5091426;28;20138;-69
2022/06/16 05:01:06;;;;;;;2.47;1.53;;;;;;;;;;5092352;28;20028;-69
2022/06/16 05:03:32;;;;;;;10.17;1.40;;;;;;;;;;5092120;28;20019;-69
2022/06/16 05:05:59;;;;;;;4.73;1.47;;;;;;;;;;5091461;28;20020;-69
2022/06/16 05:08:26;;;;;;;2.53;1.50;;;;;;;;;;5088771;28;20487;-69
2022/06/16 05:10:53;;;;;;;7.47;1.70;;;;;;;;;;5086727;28;20028;-70
2022/06/16 05:13:20;;;;;;;3.13;1.13;;;;;;;;;;5086596;28;20034;-69
2022/06/16 05:15:47;;;;;;;2.27;1.00;;;;;;;;;;5086704;28;20059;-69
2022/06/16 05:18:13;;;;;;;2.70;1.10;;;;;;;;;;5089354;28;20028;-69
2022/06/16 05:20:41;;;;;;;5.57;1.00;;;;;;;;;;5091631;28;20016;-69
2022/06/16 05:23:09;;;;;;;2.60;0.90;;;;;;;;;;5091293;28;20490;-69
2022/06/16 05:25:35;;;;;;;1.13;0.80;;;;;;;;;;5091021;28;20048;-69
2022/06/16 05:28:02;;;;;;;1.57;0.70;;;;;;;;;;5091464;28;20431;-69
2022/06/16 05:30:29;;;;;;;1.23;0.60;;;;;;;;;;5089276;28;20028;-69
2022/06/16 05:32:56;;;;;;;3.73;1.10;;;;;;;;;;5086701;28;20542;-69
2022/06/16 05:35:22;;;;;;;2.10;0.87;;;;;;;;;;5086375;28;20042;-69
2022/06/16 05:37:49;;;;;;;5.23;0.93;;;;;;;;;;5086531;28;20059;-69
2022/06/16 05:40:16;;;;;;;2.63;0.60;;;;;;;;;;5088041;28;20036;-69
2022/06/16 05:42:42;;;;;;;1.00;0.63;;;;;;;;;;5092084;28;20048;-69
2022/06/16 05:45:10;;;;;;;1.33;0.53;;;;;;;;;;5091907;28;20032;-69
2022/06/16 05:47:37;;;;;;;1.40;0.87;;;;;;;;;;5091975;28;20052;-69
2022/06/16 05:50:05;;;;;;;1.87;0.60;;;;;;;;;;5091932;28;20028;-70
2022/06/16 05:52:31;;;;;;;1.60;0.77;;;;;;;;;;5089105;28;20028;-69
2022/06/16 05:54:58;;;;;;;1.60;0.70;;;;;;;;;;5086357;28;20020;-69
2022/06/16 05:57:25;;;;;;;2.20;0.50;;;;;;;;;;5086175;28;20032;-69
2022/06/16 05:59:51;;;;;;;0.90;0.60;;;;;;;;;;5086233;28;20032;-69
2022/06/16 06:02:19;;;;;;;0.73;0.40;;;;;;;;;;5087067;28;20016;-70
2022/06/16 06:04:48;;;;;;;1.20;0.60;;;;;;;;;;5091771;28;20162;-69
2022/06/16 06:07:15;;;;;;;2.63;0.60;;;;;;;;;;5091684;28;20035;-69
2022/06/16 06:18:08;;;;;;;0.88;0.60;;;;;;;;;;5090156;28;20106;-69
2022/06/16 06:20:35;;;;;;;2.30;0.50;;;;;;;;;;5089829;28;20032;-69
2022/06/16 06:23:01;;;;;;;1.43;0.77;;;;;;;;;;5089792;28;20048;-69
2022/06/16 06:25:28;;;;;;;2.23;0.70;;;;;;;;;;5093057;28;20032;-69
2022/06/16 06:27:55;;;;;;;0.70;0.50;;;;;;;;;;5094992;28;20026;-69
2022/06/16 06:30:23;;;;;;;0.77;0.40;;;;;;;;;;5094608;28;20013;-69
2022/06/16 06:32:49;;;;;;;0.97;0.67;;;;;;;;;;5094710;28;20034;-69
2022/06/16 06:35:17;;;;;;;0.83;0.60;;;;;;;;;;5095094;28;20031;-69
2022/06/16 06:37:44;;;;;;;4.07;0.87;;;;;;;;;;5091244;28;20021;-69
2022/06/16 06:40:17;;;;;;;3.50;1.40;;;;;;;;;;5089308;28;20056;-69
2022/06/16 06:42:43;;;;;;;0.90;0.73;;;;;;;;;;5089442;28;20017;-69
2022/06/16 06:45:10;;;;;;;1.70;0.80;;;;;;;;;;5089133;28;20016;-69
2022/06/16 06:47:37;;;;;;;1.97;0.80;;;;;;;;;;5092403;28;20024;-70
2022/06/16 06:50:04;;;;;;;1.27;0.63;;;;;;;;;;5094665;28;20074;-69
2022/06/16 06:52:30;;;;;;;2.60;1.50;;;;;;;;;;5094742;28;20021;-69
2022/06/16 06:54:57;;;;;;;3.73;0.80;;;;;;;;;;5094616;28;20057;-70
2022/06/16 06:57:28;;;;;;;0.93;0.57;;;;;;;;;;5094200;28;20056;-69
2022/06/16 06:59:55;;;;;;;1.00;0.63;;;;;;;;;;5090330;28;20043;-69
2022/06/16 07:02:22;;;;;;;2.00;0.90;;;;;;;;;;5089000;28;20016;-69
2022/06/16 07:04:48;;;;;;;1.30;0.80;;;;;;;;;;5088744;28;20020;-70
2022/06/16 07:07:20;;;;;;;1.10;0.80;;;;;;;;;;5088881;28;20039;-69
2022/06/16 07:09:47;;;;;;;4.17;1.00;;;;;;;;;;5091893;28;20091;-69
2022/06/16 07:12:14;;;;;;;0.97;0.73;;;;;;;;;;5094168;28;20020;-69
2022/06/16 07:14:41;;;;;;;1.97;1.00;;;;;;;;;;5093901;28;20020;-69
2022/06/16 07:17:08;;;;;;;1.83;0.93;;;;;;;;;;5094340;28;20027;-69
2022/06/16 07:19:35;;;;;;;1.90;1.07;;;;;;;;;;5093949;28;20035;-69
2022/06/16 07:22:02;;;;;;;6.30;1.40;;;;;;;;;;5089619;28;20048;-69
2022/06/16 07:24:30;;;;;;;1.70;1.00;;;;;;;;;;5088523;28;20024;-69
2022/06/16 07:26:56;;;;;;;2.60;1.20;;;;;;;;;;5088468;28;20032;-69
2022/06/16 07:29:23;;;;;;;4.13;1.10;;;;;;;;;;5088232;28;20078;-69
2022/06/16 07:31:50;;;;;;;3.00;1.00;;;;;;;;;;5091079;28;20547;-69
2022/06/16 07:34:17;;;;;;;2.33;1.13;;;;;;;;;;5093931;28;20076;-69
2022/06/16 07:36:43;;;;;;;1.77;0.80;;;;;;;;;;5093407;28;20047;-69
2022/06/16 07:39:10;;;;;;;1.37;0.90;;;;;;;;;;5093718;28;20038;-70
2022/06/16 07:41:37;;;;;;;1.33;0.90;;;;;;;;;;5093800;28;20105;-69
2022/06/16 07:44:05;;;;;;;3.07;0.90;;;;;;;;;;5090627;28;20012;-70
2022/06/16 07:46:32;;;;;;;1.53;0.93;;;;;;;;;;5088258;28;20505;-69
2022/06/16 07:48:58;;;;;;;1.87;1.00;;;;;;;;;;5087995;28;20445;-69
2022/06/16 07:51:25;;;;;;;2.90;0.90;;;;;;;;;;5088331;28;20046;-69
2022/06/16 07:53:52;;;;;;;2.47;0.93;;;;;;;;;;5089675;28;20031;-69
2022/06/16 07:56:20;;;;;;;2.80;1.20;;;;;;;;;;5093465;28;20024;-69
2022/06/16 07:58:47;;;;;;;2.77;1.17;;;;;;;;;;5093395;28;20056;-69
2022/06/16 08:01:14;;;;;;;1.87;1.00;;;;;;;;;;5093041;28;20475;-69
2022/06/16 08:03:40;;;;;;;1.53;0.97;;;;;;;;;;5093266;28;20028;-69
2022/06/16 08:06:08;;;;;;;1.67;1.10;;;;;;;;;;5090618;28;20032;-69
2022/06/16 08:08:35;;;;;;;2.93;1.60;;;;;;;;;;5087709;28;20039;-69
2022/06/16 08:11:02;;;;;;;3.13;1.90;;;;;;;;;;5087460;28;20020;-69
2022/06/16 08:13:29;;;;;;;4.97;1.73;;;;;;;;;;5087564;28;20106;-69
2022/06/16 08:15:56;;;;;;;2.97;1.50;;;;;;;;;;5089011;28;20470;-69
2022/06/16 08:18:24;;;;;;;3.37;1.77;;;;;;;;;;5092650;28;20505;-69
2022/06/16 08:20:51;;;;;;;10.90;1.80;;;;;;;;;;5092960;28;20078;-69
2022/06/16 08:23:18;;;;;;;2.13;1.30;;;;;;;;;;5092897;28;20034;-69
2022/06/16 08:25:46;;;;;;;2.40;1.50;;;;;;;;;;5092836;28;20028;-69
2022/06/16 08:28:14;;;;;;;9.60;1.43;;;;;;;;;;5090476;28;20033;-69
2022/06/16 08:30:44;;;;;;;2.00;1.20;;;;;;;;;;5087115;28;20093;-69
2022/06/16 08:33:13;;;;;;;3.17;1.37;;;;;;;;;;5087036;28;20016;-69
2022/06/16 08:35:41;;;;;;;5.43;1.30;;;;;;;;;;5087322;28;20024;-69
2022/06/16 08:38:08;;;;;;;3.23;1.33;;;;;;;;;;5088816;28;20020;-69
2022/06/16 08:40:36;;;;;;;4.97;1.60;;;;;;;;;;5091762;28;20031;-69
2022/06/16 08:43:06;;;;;;;4.57;1.47;;;;;;;;;;5092278;28;20024;-69
2022/06/16 08:45:33;;;;;;;4.20;1.53;;;;;;;;;;5092410;28;20495;-69
2022/06/16 08:48:09;;;;;;;2.43;1.30;;;;;;;;;;5092631;28;20032;-69
2022/06/16 08:50:35;;;;;;;4.73;1.20;;;;;;;;;;5089721;28;20127;-69
2022/06/16 08:53:08;;;;;;;3.47;1.20;;;;;;;;;;5087217;28;20109;-69
2022/06/16 08:55:38;;;;;;;3.47;1.27;;;;;;;;;;5086546;28;20024;-69
2022/06/16 08:58:20;;;;;;;2.03;0.90;;;;;;;;;;5086868;28;20020;-70
2022/06/16 09:00:47;;;;;;;4.13;1.50;;;;;;;;;;5089150;28;20020;-69
2022/06/16 09:03:17;;;;;;;3.57;1.23;;;;;;;;;;5092369;28;20028;-69
2022/06/16 09:05:54;;;;;;;2.40;1.47;;;;;;;;;;5092304;28;20032;-69
2022/06/16 09:08:31;;;;;;;3.13;1.37;;;;;;;;;;5092331;28;20099;-69
2022/06/16 09:11:10;;;;;;;2.97;1.43;;;;;;;;;;5092349;28;20381;-69
2022/06/16 09:13:57;;;;;;;3.57;1.00;;;;;;;;;;5088243;28;20494;-69
2022/06/16 09:16:33;;;;;;;3.87;1.53;;;;;;;;;;5086910;28;20342;-69
2022/06/16 09:19:11;;;;;;;2.07;1.50;;;;;;;;;;5086726;28;20089;-69
2022/06/16 09:21:38;;;;;;;1.93;1.00;;;;;;;;;;5086318;28;20028;-69
2022/06/16 09:24:05;;;;;;;2.60;1.10;;;;;;;;;;5091221;28;20058;-69
2022/06/16 09:26:35;;;;;;;3.50;1.20;;;;;;;;;;5092147;28;20032;-69
2022/06/16 09:29:10;;;;;;;5.37;1.13;;;;;;;;;;5092060;28;20024;-69
2022/06/16 09:31:49;;;;;;;6.32;1.35;;;;;;;;;;5092123;28;20061;-69
2022/06/16 09:34:19;;;;;;;3.63;0.97;;;;;;;;;;5091236;28;20093;-69
2022/06/16 09:36:50;;;;;;;2.70;1.27;;;;;;;;;;5086596;28;20070;-69
2022/06/16 09:39:25;;;;;;;2.70;1.20;;;;;;;;;;5086611;28;20499;-69
2022/06/16 09:44:51;;;;;;;2.63;0.97;;;;;;;;;;5089010;28;20035;-69
2022/06/16 09:47:24;;;;;;;2.53;1.20;;;;;;;;;;5075808;28;20098;-69
2022/06/16 09:50:02;;;;;;;7.70;0.97;;;;;;;;;;5075583;28;20016;-69
2022/06/16 09:52:35;;;;;;;3.00;1.10;;;;;;;;;;5075123;28;20491;-69
2022/06/16 09:55:08;;;;;;;1.80;0.90;;;;;;;;;;5075520;28;20024;-69
2022/06/16 09:57:38;;;;;;;15.53;2.20;;;;;;;;;;5072499;28;20028;-69
2022/06/16 10:00:11;;;;;;;2.60;1.00;;;;;;;;;;5070232;28;20060;-69
2022/06/16 10:02:41;;;;;;;2.80;1.20;;;;;;;;;;5069420;28;20043;-69
2022/06/16 10:05:19;;;;;;;3.33;1.20;;;;;;;;;;5069818;28;20024;-69
2022/06/16 10:07:51;;;;;;;3.67;1.00;;;;;;;;;;5072892;28;20025;-69
2022/06/16 10:10:41;;;;;;;7.37;1.43;;;;;;;;;;5075078;28;20012;-69
2022/06/16 10:13:14;;;;;;;9.97;1.23;;;;;;;;;;5087912;28;20054;-69
2022/06/16 10:15:47;;;;;;;3.73;1.10;;;;;;;;;;5095324;28;20024;-69
2022/06/16 10:18:13;;;;;;;2.37;1.13;;;;;;;;;;5095405;28;20043;-69
2022/06/16 10:20:40;;;;;;;1.50;0.90;;;;;;;;;;5090171;28;20024;-69
2022/06/16 10:23:07;;;;;;;5.83;1.10;;;;;;;;;;5089303;28;20078;-69
2022/06/16 10:25:40;;;;;;;5.30;1.43;;;;;;;;;;5089435;28;20064;-69
2022/06/16 10:28:23;;;;;;;9.40;1.20;;;;;;;;;;5089495;28;20028;-69
2022/06/16 10:30:50;;;;;;;4.43;1.07;;;;;;;;;;5094643;28;20020;-68
2022/06/16 10:33:16;;;;;;;5.17;1.50;;;;;;;;;;5094678;28;20028;-68
2022/06/16 10:36:06;;;;;;;2.80;0.93;;;;;;;;;;5095015;28;20094;-68
2022/06/16 10:38:44;;;;;;;4.50;1.00;;;;;;;;;;5086474;28;20040;-69
2022/06/16 10:41:29;;;;;;;5.03;1.17;;;;;;;;;;5093598;28;20031;-69
2022/06/16 10:43:57;;;;;;;8.30;1.80;;;;;;;;;;5089153;28;20020;-68
2022/06/16 10:46:29;;;;;;;6.87;1.27;;;;;;;;;;5089534;28;20051;-69
2022/06/16 10:48:57;;;;;;;5.83;1.40;;;;;;;;;;5089291;28;20471;-69
2022/06/16 10:51:25;;;;;;;4.70;2.30;;;;;;;;;;5090649;28;20035;-69
2022/06/16 10:54:13;;;;;;;6.70;1.37;;;;;;;;;;5094823;28;20032;-68
2022/06/16 10:56:41;;;;;;;6.33;1.23;;;;;;;;;;5093190;28;20025;-69
2022/06/16 10:59:18;;;;;;;6.03;1.30;;;;;;;;;;5094624;28;20031;-68
2022/06/16 11:01:53;;;;;;;5.07;1.50;;;;;;;;;;5094326;28;20479;-69
2022/06/16 11:04:34;;;;;;;4.55;1.25;;;;;;;;;;5091435;28;20027;-69
2022/06/16 11:07:00;;;;;;;7.50;1.27;;;;;;;;;;5088649;28;20051;-68
2022/06/16 11:09:28;;;;;;;12.50;1.47;;;;;;;;;;5088978;28;20062;-69
2022/06/16 11:11:55;;;;;;;7.00;1.93;;;;;;;;;;5088503;28;20447;-68
2022/06/16 11:14:33;;;;;;;4.13;1.20;;;;;;;;;;5091632;28;20048;-69
2022/06/16 11:17:00;;;;;;;6.57;1.50;;;;;;;;;;5093902;28;20016;-69
2022/06/16 11:19:37;;;;;;;5.10;1.20;;;;;;;;;;5094234;28;20069;-68
2022/06/16 11:22:18;;;;;;;7.63;1.80;;;;;;;;;;5093753;28;20028;-69
2022/06/16 11:24:56;;;;;;;10.23;1.70;;;;;;;;;;5094122;28;20103;-68
2022/06/16 11:27:22;;;;;;;5.53;1.47;;;;;;;;;;5088894;28;20036;-69
2022/06/16 11:29:49;;;;;;;8.53;1.37;;;;;;;;;;5088552;28;20020;-69
2022/06/16 11:32:22;;;;;;;4.83;1.77;;;;;;;;;;5087989;28;20052;-69
2022/06/16 11:34:49;;;;;;;10.93;2.17;;;;;;;;;;5068056;28;20020;-69
2022/06/16 11:37:38;;;;;;;7.67;1.00;;;;;;;;;;5072496;28;20025;-68
2022/06/16 11:40:23;;;;;;;4.17;1.27;;;;;;;;;;5073480;28;20614;-68
2022/06/16 11:42:57;;;;;;;4.60;1.40;;;;;;;;;;5073517;28;20070;-68
2022/06/16 11:45:28;;;;;;;5.67;1.30;;;;;;;;;;5073642;28;20033;-68
2022/06/16 11:48:10;;;;;;;8.30;1.67;;;;;;;;;;5072211;28;20387;-68
2022/06/16 11:50:36;;;;;;;9.37;1.90;;;;;;;;;;5067624;28;20021;-69
2022/06/16 11:53:03;;;;;;;13.20;1.50;;;;;;;;;;5067840;28;20099;-68
2022/06/16 11:55:48;;;;;;;4.57;1.40;;;;;;;;;;5067908;28;20027;-68
2022/06/16 11:58:33;;;;;;;15.93;1.85;;;;;;;;;;5069373;28;20017;-68
2022/06/16 12:01:00;;;;;;;6.43;1.98;;;;;;;;;;5091414;28;20084;-68
2022/06/16 12:03:39;;;;;;;5.40;1.63;;;;;;;;;;5093381;28;20051;-68
2022/06/16 12:06:08;;;;;;;9.47;1.90;;;;;;;;;;5092936;28;20085;-68
2022/06/16 12:08:38;;;;;;;11.03;2.40;;;;;;;;;;5092167;28;20474;-69
2022/06/16 12:11:11;;;;;;;8.77;1.60;;;;;;;;;;5090184;28;20416;-68
2022/06/16 12:13:51;;;;;;;5.83;1.37;;;;;;;;;;5087641;28;20019;-68
2022/06/16 12:16:32;;;;;;;3.07;1.60;;;;;;;;;;5087569;28;20475;-69
2022/06/16 12:19:11;;;;;;;4.53;1.40;;;;;;;;;;5087744;28;20077;-68
2022/06/16 12:21:38;;;;;;;6.23;1.53;;;;;;;;;;5091815;28;20028;-68
2022/06/16 12:24:14;;;;;;;5.37;1.47;;;;;;;;;;5092906;28;20043;-68
2022/06/16 12:27:01;;;;;;;9.00;2.37;;;;;;;;;;5092089;28;20036;-69
2022/06/16 12:29:34;;;;;;;14.30;2.47;;;;;;;;;;5092687;28;20028;-68
2022/06/16 12:32:07;;;;;;;4.83;2.30;;;;;;;;;;5092394;28;20163;-68
2022/06/16 12:34:46;;;;;;;7.20;1.40;;;;;;;;;;5087073;28;20081;-69
2022/06/16 12:37:15;;;;;;;5.97;1.27;;;;;;;;;;5087103;28;20505;-68
2022/06/16 12:39:47;;;;;;;6.37;1.97;;;;;;;;;;5087292;28;20024;-68
2022/06/16 12:42:17;;;;;;;4.40;1.73;;;;;;;;;;5087213;28;20039;-69
2022/06/16 12:44:54;;;;;;;7.50;1.77;;;;;;;;;;5092604;28;20028;-68
2022/06/16 12:47:27;;;;;;;7.20;1.40;;;;;;;;;;5092617;28;20028;-69
2022/06/16 12:50:03;;;;;;;4.87;1.40;;;;;;;;;;5092458;28;20028;-69
2022/06/16 12:52:35;;;;;;;8.27;1.50;;;;;;;;;;5092685;28;20073;-68
2022/06/16 12:55:10;;;;;;;5.87;1.60;;;;;;;;;;5089893;28;20020;-69
2022/06/16 12:57:37;;;;;;;;;;;;;;;;;;5087159;28;20055;-68
2022/06/16 13:00:10;;;;;;;11.03;1.80;;;;;;;;;;5086795;28;19915;-69
2022/06/16 13:02:48;;;;;;;3.90;1.53;;;;;;;;;;5086930;28;20048;-68
2022/06/16 13:05:15;;;;;;;3.20;1.30;;;;;;;;;;5089254;28;20436;-68
2022/06/16 13:07:44;;;;;;;4.37;1.33;;;;;;;;;;5092094;28;20028;-69
2022/06/16 13:10:15;;;;;;;5.13;2.10;;;;;;;;;;5092203;28;20035;-69
2022/06/16 13:12:44;;;;;;;4.63;1.20;;;;;;;;;;5092435;28;20099;-69
2022/06/16 13:15:22;;;;;;;2.57;1.13;;;;;;;;;;5092312;28;20162;-69
2022/06/16 13:18:07;;;;;;;3.80;1.40;;;;;;;;;;5088530;28;20379;-69
2022/06/16 13:20:34;;;;;;;8.18;1.90;;;;;;;;;;5089154;28;20459;-69
2022/06/16 13:23:10;;;;;;;4.20;1.80;;;;;;;;;;5090869;28;20482;-68
2022/06/16 13:25:49;;;;;;;4.13;2.43;;;;;;;;;;5090789;28;20085;-68
2022/06/16 13:28:39;;;;;;;6.53;3.10;;;;;;;;;;5094917;28;20024;-69
2022/06/16 13:31:13;;;;;;;5.73;2.60;;;;;;;;;;5088060;28;20042;-68
2022/06/16 13:33:45;;;;;;;6.63;2.25;;;;;;;;;;5095873;28;20493;-68
2022/06/16 13:36:14;;;;;;;6.37;2.80;;;;;;;;;;5096284;28;20017;-69
2022/06/16 13:38:43;;;;;;;4.17;2.30;;;;;;;;;;5095859;28;20021;-69
2022/06/16 13:41:29;;;;;;;5.20;2.20;;;;;;;;;;5090397;28;20031;-69
2022/06/16 13:44:16;;;;;;;6.40;2.00;;;;;;;;;;5089951;28;20116;-69
2022/06/16 13:47:03;;;;;;;7.23;2.10;;;;;;;;;;5090118;28;20063;-69
2022/06/16 13:49:31;;;;;;;4.17;1.90;;;;;;;;;;5081857;28;20117;-68
2022/06/16 13:52:17;;;;;;;4.87;1.83;;;;;;;;;;5095359;28;20020;-69
2022/06/16 13:54:44;;;;;;;7.17;2.40;;;;;;;;;;5095713;28;20596;-69
2022/06/16 13:57:20;;;;;;;6.13;2.03;;;;;;;;;;5095681;28;20035;-69
2022/06/16 13:59:46;;;;;;;4.00;1.90;;;;;;;;;;5095158;28;20020;-69
2022/06/16 14:02:15;;;;;;;6.87;2.17;;;;;;;;;;5092254;28;20360;-69
2022/06/16 14:04:50;;;;;;;6.67;2.27;;;;;;;;;;5089735;28;20084;-69
2022/06/16 14:07:18;;;;;;;5.47;2.63;;;;;;;;;;5089658;28;20173;-68
2022/06/16 14:10:02;;;;;;;8.63;2.60;;;;;;;;;;5089982;28;20506;-68
2022/06/16 14:12:51;;;;;;;5.97;1.73;;;;;;;;;;5093575;28;20093;-68
2022/06/16 14:15:18;;;;;;;9.30;2.90;;;;;;;;;;5048865;28;20035;-69
2022/06/16 14:17:45;;;;;;;13.73;2.73;;;;;;;;;;5095247;28;20056;-69
2022/06/16 14:20:15;;;;;;;4.83;2.00;;;;;;;;;;5094905;28;20036;-68
2022/06/16 14:22:45;;;;;;;6.07;2.17;;;;;;;;;;5095235;28;20028;-68
2022/06/16 14:25:16;;;;;;;5.77;2.10;;;;;;;;;;5089700;28;20049;-68
2022/06/16 14:27:50;;;;;;;7.00;2.10;;;;;;;;;;5089505;28;20107;-69
2022/06/16 14:30:19;;;;;;;4.63;1.85;;;;;;;;;;5089008;28;20526;-69
2022/06/16 14:32:52;;;;;;;7.20;2.73;;;;;;;;;;5089085;28;20475;-68
2022/06/16 14:35:31;;;;;;;5.60;1.93;;;;;;;;;;5094723;28;20031;-68
2022/06/16 14:38:09;;;;;;;9.60;1.73;;;;;;;;;;5094763;28;20016;-69
2022/06/16 14:40:36;;;;;;;9.93;2.40;;;;;;;;;;5094333;28;20028;-68
2022/06/16 14:43:08;;;;;;;5.57;1.97;;;;;;;;;;5094724;28;20066;-69
2022/06/16 14:45:44;;;;;;;5.00;2.40;;;;;;;;;;5093878;28;20070;-69
2022/06/16 14:48:18;;;;;;;5.63;2.47;;;;;;;;;;5089593;28;20103;-69
2022/06/16 14:50:47;;;;;;;5.70;1.77;;;;;;;;;;5089598;28;20471;-68
2022/06/16 14:53:13;;;;;;;8.17;2.40;;;;;;;;;;5089234;28;20129;-68
2022/06/16 14:55:58;;;;;;;6.83;2.23;;;;;;;;;;5090462;28;20063;-68
2022/06/16 14:58:25;;;;;;;8.65;2.10;;;;;;;;;;5094640;28;20063;-68
2022/06/16 15:00:56;;;;;;;8.83;2.73;;;;;;;;;;5094862;28;20371;-68
2022/06/16 15:03:27;;;;;;;8.53;2.63;;;;;;;;;;5094427;28;20467;-68
2022/06/16 15:05:55;;;;;;;6.97;2.40;;;;;;;;;;5094291;28;20032;-68
2022/06/16 15:08:24;;;;;;;16.23;2.70;;;;;;;;;;5092390;28;20115;-69
2022/06/16 15:10:51;;;;;;;6.40;2.10;;;;;;;;;;5089292;28;20028;-69
2022/06/16 15:13:21;;;;;;;5.60;1.90;;;;;;;;;;5089214;28;20034;-69
2022/06/16 15:15:47;;;;;;;5.00;2.03;;;;;;;;;;5087207;28;20348;-69
2022/06/16 15:18:14;;;;;;;10.30;2.00;;;;;;;;;;5090057;28;20301;-69
2022/06/16 15:20:45;;;;;;;11.40;1.50;;;;;;;;;;5094398;28;20028;-69
2022/06/16 15:23:14;;;;;;;9.17;1.80;;;;;;;;;;5094302;28;20028;-69
2022/06/16 15:25:44;;;;;;;5.13;2.07;;;;;;;;;;5094175;28;20101;-69